sensor_id;sensor_type;location;lat;lon;timestamp;P1;durP1;ratioP1;P2;durP2;ratioP2
35795;SDS011;21916;52.428;13.302;2023-07-20T00:01:46;1.33;;;0.95;;
35795;SDS011;21916;52.428;13.302;2023-07-20T00:04:14;1.90;;;1.13;;
35795;SDS011;21916;52.428;13.302;2023-07-20T00:06:39;1.50;;;1.10;;
35795;SDS011;21916;52.428;13.302;2023-07-20T00:09:09;1.98;;;1.40;;
35795;SDS011;21916;52.428;13.302;2023-07-20T00:11:35;1.10;;;0.85;;
35795;SDS011;21916;52.428;13.302;2023-07-20T00:14:05;1.10;;;0.82;;
35795;SDS011;21916;52.428;13.302;2023-07-20T00:16:31;0.82;;;0.60;;
35795;SDS011;21916;52.428;13.302;2023-07-20T00:18:57;2.33;;;0.90;;
35795;SDS011;21916;52.428;13.302;2023-07-20T00:21:23;2.25;;;1.50;;
35795;SDS011;21916;52.428;13.302;2023-07-20T00:23:49;1.83;;;1.30;;
35795;SDS011;21916;52.428;13.302;2023-07-20T00:26:15;1.65;;;1.30;;
35795;SDS011;21916;52.428;13.302;2023-07-20T00:28:41;2.10;;;1.10;;
35795;SDS011;21916;52.428;13.302;2023-07-20T00:31:08;4.63;;;0.90;;
35795;SDS011;21916;52.428;13.302;2023-07-20T00:33:36;2.15;;;1.10;;
35795;SDS011;21916;52.428;13.302;2023-07-20T00:36:01;4.88;;;1.25;;
35795;SDS011;21916;52.428;13.302;2023-07-20T00:38:27;1.10;;;0.98;;
35795;SDS011;21916;52.428;13.302;2023-07-20T00:40:53;1.17;;;1.00;;
35795;SDS011;21916;52.428;13.302;2023-07-20T00:43:19;1.60;;;1.48;;
35795;SDS011;21916;52.428;13.302;2023-07-20T00:45:45;1.70;;;1.25;;
35795;SDS011;21916;52.428;13.302;2023-07-20T00:48:11;1.55;;;1.30;;
35795;SDS011;21916;52.428;13.302;2023-07-20T00:50:39;2.70;;;1.20;;
35795;SDS011;21916;52.428;13.302;2023-07-20T00:53:05;1.70;;;0.93;;
35795;SDS011;21916;52.428;13.302;2023-07-20T00:55:32;2.67;;;1.70;;
35795;SDS011;21916;52.428;13.302;2023-07-20T00:57:59;1.35;;;1.00;;
35795;SDS011;21916;52.428;13.302;2023-07-20T01:00:25;1.63;;;1.25;;
35795;SDS011;21916;52.428;13.302;2023-07-20T01:02:52;2.05;;;1.25;;
35795;SDS011;21916;52.428;13.302;2023-07-20T01:05:20;2.17;;;1.17;;
35795;SDS011;21916;52.428;13.302;2023-07-20T01:07:55;1.15;;;0.90;;
35795;SDS011;21916;52.428;13.302;2023-07-20T01:10:29;3.10;;;1.73;;
35795;SDS011;21916;52.428;13.302;2023-07-20T01:13:05;1.25;;;1.10;;
35795;SDS011;21916;52.428;13.302;2023-07-20T01:15:35;1.42;;;1.23;;
35795;SDS011;21916;52.428;13.302;2023-07-20T01:18:01;1.73;;;1.58;;
35795;SDS011;21916;52.428;13.302;2023-07-20T01:20:30;1.48;;;1.35;;
35795;SDS011;21916;52.428;13.302;2023-07-20T01:26:37;1.70;;;1.20;;
35795;SDS011;21916;52.428;13.302;2023-07-20T01:32:04;1.67;;;1.50;;
35795;SDS011;21916;52.428;13.302;2023-07-20T01:34:32;1.38;;;1.27;;
35795;SDS011;21916;52.428;13.302;2023-07-20T01:37:02;3.30;;;1.10;;
35795;SDS011;21916;52.428;13.302;2023-07-20T01:39:30;2.15;;;1.42;;
35795;SDS011;21916;52.428;13.302;2023-07-20T01:41:58;1.88;;;1.60;;
35795;SDS011;21916;52.428;13.302;2023-07-20T01:44:24;2.42;;;1.17;;
35795;SDS011;21916;52.428;13.302;2023-07-20T01:46:52;2.15;;;1.45;;
35795;SDS011;21916;52.428;13.302;2023-07-20T01:49:17;1.85;;;1.65;;
35795;SDS011;21916;52.428;13.302;2023-07-20T01:51:43;2.03;;;1.25;;
35795;SDS011;21916;52.428;13.302;2023-07-20T01:54:09;1.55;;;1.45;;
35795;SDS011;21916;52.428;13.302;2023-07-20T01:56:35;1.23;;;0.98;;
35795;SDS011;21916;52.428;13.302;2023-07-20T01:59:01;3.17;;;1.80;;
35795;SDS011;21916;52.428;13.302;2023-07-20T02:01:27;1.50;;;1.35;;
35795;SDS011;21916;52.428;13.302;2023-07-20T02:03:54;1.85;;;1.23;;
35795;SDS011;21916;52.428;13.302;2023-07-20T02:06:20;2.00;;;1.48;;
35795;SDS011;21916;52.428;13.302;2023-07-20T02:08:48;1.30;;;1.20;;
35795;SDS011;21916;52.428;13.302;2023-07-20T02:11:13;2.78;;;1.13;;
35795;SDS011;21916;52.428;13.302;2023-07-20T02:13:40;2.33;;;1.27;;
35795;SDS011;21916;52.428;13.302;2023-07-20T02:16:06;3.90;;;1.33;;
35795;SDS011;21916;52.428;13.302;2023-07-20T02:18:32;1.65;;;1.30;;
35795;SDS011;21916;52.428;13.302;2023-07-20T02:20:58;2.60;;;1.42;;
35795;SDS011;21916;52.428;13.302;2023-07-20T02:23:24;1.40;;;1.20;;
35795;SDS011;21916;52.428;13.302;2023-07-20T02:25:50;1.58;;;1.40;;
35795;SDS011;21916;52.428;13.302;2023-07-20T02:28:16;2.05;;;1.40;;
35795;SDS011;21916;52.428;13.302;2023-07-20T02:30:42;2.78;;;1.98;;
35795;SDS011;21916;52.428;13.302;2023-07-20T02:33:08;2.17;;;1.98;;
35795;SDS011;21916;52.428;13.302;2023-07-20T02:35:34;2.38;;;1.50;;
35795;SDS011;21916;52.428;13.302;2023-07-20T02:38:01;1.95;;;1.58;;
35795;SDS011;21916;52.428;13.302;2023-07-20T02:40:28;2.60;;;2.08;;
35795;SDS011;21916;52.428;13.302;2023-07-20T02:42:54;1.25;;;1.00;;
35795;SDS011;21916;52.428;13.302;2023-07-20T02:45:20;1.42;;;1.23;;
35795;SDS011;21916;52.428;13.302;2023-07-20T02:47:46;3.25;;;1.85;;
35795;SDS011;21916;52.428;13.302;2023-07-20T02:50:12;2.83;;;1.80;;
35795;SDS011;21916;52.428;13.302;2023-07-20T02:52:39;3.05;;;2.30;;
35795;SDS011;21916;52.428;13.302;2023-07-20T02:55:05;2.50;;;1.88;;
35795;SDS011;21916;52.428;13.302;2023-07-20T02:57:31;1.75;;;1.50;;
35795;SDS011;21916;52.428;13.302;2023-07-20T02:59:57;3.28;;;2.00;;
35795;SDS011;21916;52.428;13.302;2023-07-20T03:02:23;3.67;;;2.97;;
35795;SDS011;21916;52.428;13.302;2023-07-20T03:04:49;3.90;;;2.83;;
35795;SDS011;21916;52.428;13.302;2023-07-20T03:07:15;2.92;;;2.13;;
35795;SDS011;21916;52.428;13.302;2023-07-20T03:09:41;3.22;;;2.03;;
35795;SDS011;21916;52.428;13.302;2023-07-20T03:12:07;2.78;;;1.92;;
35795;SDS011;21916;52.428;13.302;2023-07-20T03:14:33;3.95;;;2.50;;
35795;SDS011;21916;52.428;13.302;2023-07-20T03:16:59;2.58;;;2.35;;
35795;SDS011;21916;52.428;13.302;2023-07-20T03:19:25;2.85;;;2.22;;
35795;SDS011;21916;52.428;13.302;2023-07-20T03:21:51;2.22;;;1.90;;
35795;SDS011;21916;52.428;13.302;2023-07-20T03:24:18;3.92;;;2.60;;
35795;SDS011;21916;52.428;13.302;2023-07-20T03:26:46;6.25;;;3.20;;
35795;SDS011;21916;52.428;13.302;2023-07-20T03:29:12;4.03;;;2.85;;
35795;SDS011;21916;52.428;13.302;2023-07-20T03:31:38;2.38;;;1.48;;
35795;SDS011;21916;52.428;13.302;2023-07-20T03:34:04;3.17;;;2.22;;
35795;SDS011;21916;52.428;13.302;2023-07-20T03:36:31;4.03;;;2.25;;
35795;SDS011;21916;52.428;13.302;2023-07-20T03:38:58;3.03;;;2.00;;
35795;SDS011;21916;52.428;13.302;2023-07-20T03:41:24;6.70;;;2.25;;
35795;SDS011;21916;52.428;13.302;2023-07-20T03:43:50;4.40;;;3.10;;
35795;SDS011;21916;52.428;13.302;2023-07-20T03:46:18;4.93;;;2.53;;
35795;SDS011;21916;52.428;13.302;2023-07-20T03:48:44;3.58;;;2.13;;
35795;SDS011;21916;52.428;13.302;2023-07-20T03:51:10;7.03;;;2.58;;
35795;SDS011;21916;52.428;13.302;2023-07-20T03:53:36;4.03;;;2.13;;
35795;SDS011;21916;52.428;13.302;2023-07-20T03:56:02;2.60;;;2.17;;
35795;SDS011;21916;52.428;13.302;2023-07-20T03:58:28;3.55;;;2.95;;
35795;SDS011;21916;52.428;13.302;2023-07-20T04:00:55;4.18;;;1.98;;
35795;SDS011;21916;52.428;13.302;2023-07-20T04:03:23;3.95;;;2.40;;
35795;SDS011;21916;52.428;13.302;2023-07-20T04:05:53;3.97;;;2.55;;
35795;SDS011;21916;52.428;13.302;2023-07-20T04:08:21;3.17;;;2.22;;
35795;SDS011;21916;52.428;13.302;2023-07-20T04:10:48;5.15;;;2.67;;
35795;SDS011;21916;52.428;13.302;2023-07-20T04:13:14;4.47;;;2.40;;
35795;SDS011;21916;52.428;13.302;2023-07-20T04:15:42;3.17;;;1.83;;
35795;SDS011;21916;52.428;13.302;2023-07-20T04:18:08;4.90;;;2.60;;
35795;SDS011;21916;52.428;13.302;2023-07-20T04:20:34;4.40;;;2.47;;
35795;SDS011;21916;52.428;13.302;2023-07-20T04:23:00;2.67;;;2.47;;
35795;SDS011;21916;52.428;13.302;2023-07-20T04:25:28;4.88;;;2.85;;
35795;SDS011;21916;52.428;13.302;2023-07-20T04:27:54;5.25;;;3.28;;
35795;SDS011;21916;52.428;13.302;2023-07-20T04:30:21;4.07;;;2.88;;
35795;SDS011;21916;52.428;13.302;2023-07-20T04:32:48;6.15;;;3.35;;
35795;SDS011;21916;52.428;13.302;2023-07-20T04:35:44;3.20;;;1.63;;
35795;SDS011;21916;52.428;13.302;2023-07-20T04:38:24;4.25;;;2.38;;
35795;SDS011;21916;52.428;13.302;2023-07-20T04:40:58;4.97;;;3.28;;
35795;SDS011;21916;52.428;13.302;2023-07-20T04:43:24;3.40;;;2.22;;
35795;SDS011;21916;52.428;13.302;2023-07-20T04:45:50;5.60;;;3.10;;
35795;SDS011;21916;52.428;13.302;2023-07-20T04:48:16;6.53;;;2.90;;
35795;SDS011;21916;52.428;13.302;2023-07-20T04:50:50;5.63;;;3.58;;
35795;SDS011;21916;52.428;13.302;2023-07-20T04:53:16;2.33;;;2.08;;
35795;SDS011;21916;52.428;13.302;2023-07-20T04:55:47;3.53;;;2.10;;
35795;SDS011;21916;52.428;13.302;2023-07-20T04:58:17;3.13;;;2.38;;
35795;SDS011;21916;52.428;13.302;2023-07-20T05:00:44;5.90;;;3.38;;
35795;SDS011;21916;52.428;13.302;2023-07-20T05:03:11;2.72;;;1.65;;
35795;SDS011;21916;52.428;13.302;2023-07-20T05:05:36;4.68;;;3.10;;
35795;SDS011;21916;52.428;13.302;2023-07-20T05:08:03;4.88;;;2.33;;
35795;SDS011;21916;52.428;13.302;2023-07-20T05:10:29;3.35;;;2.63;;
35795;SDS011;21916;52.428;13.302;2023-07-20T05:12:55;3.05;;;1.92;;
35795;SDS011;21916;52.428;13.302;2023-07-20T05:15:21;3.50;;;1.80;;
35795;SDS011;21916;52.428;13.302;2023-07-20T05:17:47;3.00;;;2.42;;
35795;SDS011;21916;52.428;13.302;2023-07-20T05:20:14;4.20;;;3.00;;
35795;SDS011;21916;52.428;13.302;2023-07-20T05:22:40;4.22;;;2.38;;
35795;SDS011;21916;52.428;13.302;2023-07-20T05:25:06;3.20;;;2.13;;
35795;SDS011;21916;52.428;13.302;2023-07-20T05:27:34;4.05;;;2.30;;
35795;SDS011;21916;52.428;13.302;2023-07-20T05:30:01;3.03;;;2.05;;
35795;SDS011;21916;52.428;13.302;2023-07-20T05:32:29;2.78;;;1.90;;
35795;SDS011;21916;52.428;13.302;2023-07-20T05:34:55;4.75;;;3.17;;
35795;SDS011;21916;52.428;13.302;2023-07-20T05:37:21;3.80;;;2.50;;
35795;SDS011;21916;52.428;13.302;2023-07-20T05:39:47;3.22;;;2.00;;
35795;SDS011;21916;52.428;13.302;2023-07-20T05:42:13;3.13;;;1.92;;
35795;SDS011;21916;52.428;13.302;2023-07-20T05:44:39;2.45;;;1.52;;
35795;SDS011;21916;52.428;13.302;2023-07-20T05:47:06;2.75;;;1.67;;
35795;SDS011;21916;52.428;13.302;2023-07-20T05:49:32;3.63;;;2.25;;
35795;SDS011;21916;52.428;13.302;2023-07-20T05:51:58;3.13;;;2.28;;
35795;SDS011;21916;52.428;13.302;2023-07-20T05:54:24;4.03;;;2.80;;
35795;SDS011;21916;52.428;13.302;2023-07-20T05:56:50;8.48;;;2.83;;
35795;SDS011;21916;52.428;13.302;2023-07-20T05:59:16;3.17;;;2.15;;
35795;SDS011;21916;52.428;13.302;2023-07-20T06:01:43;3.25;;;2.25;;
35795;SDS011;21916;52.428;13.302;2023-07-20T06:04:09;3.17;;;1.63;;
35795;SDS011;21916;52.428;13.302;2023-07-20T06:06:35;7.07;;;2.63;;
35795;SDS011;21916;52.428;13.302;2023-07-20T06:09:01;3.20;;;1.83;;
35795;SDS011;21916;52.428;13.302;2023-07-20T06:11:30;3.50;;;2.03;;
35795;SDS011;21916;52.428;13.302;2023-07-20T06:13:56;2.58;;;2.15;;
35795;SDS011;21916;52.428;13.302;2023-07-20T06:16:22;4.05;;;2.40;;
35795;SDS011;21916;52.428;13.302;2023-07-20T06:18:48;2.25;;;2.00;;
35795;SDS011;21916;52.428;13.302;2023-07-20T06:21:15;3.22;;;2.03;;
35795;SDS011;21916;52.428;13.302;2023-07-20T06:23:41;2.80;;;2.15;;
35795;SDS011;21916;52.428;13.302;2023-07-20T06:26:07;4.78;;;2.67;;
35795;SDS011;21916;52.428;13.302;2023-07-20T06:28:33;3.60;;;2.45;;
35795;SDS011;21916;52.428;13.302;2023-07-20T06:31:00;4.53;;;2.08;;
35795;SDS011;21916;52.428;13.302;2023-07-20T06:33:26;3.38;;;2.00;;
35795;SDS011;21916;52.428;13.302;2023-07-20T06:35:52;2.35;;;1.98;;
35795;SDS011;21916;52.428;13.302;2023-07-20T06:38:19;3.08;;;2.47;;
35795;SDS011;21916;52.428;13.302;2023-07-20T06:40:46;2.35;;;1.70;;
35795;SDS011;21916;52.428;13.302;2023-07-20T06:43:12;4.07;;;2.00;;
35795;SDS011;21916;52.428;13.302;2023-07-20T06:45:39;2.10;;;1.67;;
35795;SDS011;21916;52.428;13.302;2023-07-20T06:48:05;2.05;;;1.33;;
35795;SDS011;21916;52.428;13.302;2023-07-20T06:50:31;1.50;;;1.05;;
35795;SDS011;21916;52.428;13.302;2023-07-20T06:52:57;1.90;;;1.50;;
35795;SDS011;21916;52.428;13.302;2023-07-20T06:55:24;1.80;;;1.23;;
35795;SDS011;21916;52.428;13.302;2023-07-20T06:57:50;1.95;;;1.63;;
35795;SDS011;21916;52.428;13.302;2023-07-20T07:00:16;2.00;;;1.10;;
35795;SDS011;21916;52.428;13.302;2023-07-20T07:02:42;0.70;;;0.70;;
35795;SDS011;21916;52.428;13.302;2023-07-20T07:05:08;1.85;;;0.85;;
35795;SDS011;21916;52.428;13.302;2023-07-20T07:07:34;1.50;;;1.27;;
35795;SDS011;21916;52.428;13.302;2023-07-20T07:10:01;0.43;;;0.43;;
35795;SDS011;21916;52.428;13.302;2023-07-20T07:12:30;0.75;;;0.60;;
35795;SDS011;21916;52.428;13.302;2023-07-20T07:14:56;1.27;;;1.10;;
35795;SDS011;21916;52.428;13.302;2023-07-20T07:17:22;0.70;;;0.70;;
35795;SDS011;21916;52.428;13.302;2023-07-20T07:19:48;1.10;;;0.85;;
35795;SDS011;21916;52.428;13.302;2023-07-20T07:22:14;0.77;;;0.77;;
35795;SDS011;21916;52.428;13.302;2023-07-20T07:24:40;0.73;;;0.70;;
35795;SDS011;21916;52.428;13.302;2023-07-20T07:27:08;0.43;;;0.43;;
35795;SDS011;21916;52.428;13.302;2023-07-20T07:29:34;0.20;;;0.20;;
35795;SDS011;21916;52.428;13.302;2023-07-20T07:32:00;0.80;;;0.52;;
35795;SDS011;21916;52.428;13.302;2023-07-20T07:34:27;0.68;;;0.50;;
35795;SDS011;21916;52.428;13.302;2023-07-20T07:36:53;0.32;;;0.30;;
35795;SDS011;21916;52.428;13.302;2023-07-20T07:39:19;0.40;;;0.40;;
35795;SDS011;21916;52.428;13.302;2023-07-20T07:41:45;0.30;;;0.30;;
35795;SDS011;21916;52.428;13.302;2023-07-20T07:44:11;0.30;;;0.30;;
35795;SDS011;21916;52.428;13.302;2023-07-20T07:46:37;0.30;;;0.30;;
35795;SDS011;21916;52.428;13.302;2023-07-20T07:49:03;0.88;;;0.60;;
35795;SDS011;21916;52.428;13.302;2023-07-20T07:51:29;0.57;;;0.43;;
35795;SDS011;21916;52.428;13.302;2023-07-20T07:53:55;0.30;;;0.30;;
35795;SDS011;21916;52.428;13.302;2023-07-20T07:56:21;0.30;;;0.30;;
35795;SDS011;21916;52.428;13.302;2023-07-20T07:58:48;0.20;;;0.20;;
35795;SDS011;21916;52.428;13.302;2023-07-20T08:01:16;0.30;;;0.30;;
35795;SDS011;21916;52.428;13.302;2023-07-20T08:03:44;0.20;;;0.20;;
35795;SDS011;21916;52.428;13.302;2023-07-20T08:06:12;0.45;;;0.45;;
35795;SDS011;21916;52.428;13.302;2023-07-20T08:08:39;0.40;;;0.40;;
35795;SDS011;21916;52.428;13.302;2023-07-20T08:11:05;0.50;;;0.50;;
35795;SDS011;21916;52.428;13.302;2023-07-20T08:13:31;0.40;;;0.40;;
35795;SDS011;21916;52.428;13.302;2023-07-20T08:15:57;0.30;;;0.30;;
35795;SDS011;21916;52.428;13.302;2023-07-20T08:18:23;0.88;;;0.60;;
35795;SDS011;21916;52.428;13.302;2023-07-20T08:20:49;0.30;;;0.25;;
35795;SDS011;21916;52.428;13.302;2023-07-20T08:23:15;0.82;;;0.50;;
35795;SDS011;21916;52.428;13.302;2023-07-20T08:25:41;0.50;;;0.40;;
35795;SDS011;21916;52.428;13.302;2023-07-20T08:28:11;0.28;;;0.28;;
35795;SDS011;21916;52.428;13.302;2023-07-20T08:33:14;0.40;;;0.40;;
35795;SDS011;21916;52.428;13.302;2023-07-20T08:35:43;0.47;;;0.40;;
35795;SDS011;21916;52.428;13.302;2023-07-20T08:38:09;0.20;;;0.20;;
35795;SDS011;21916;52.428;13.302;2023-07-20T08:40:39;0.30;;;0.30;;
35795;SDS011;21916;52.428;13.302;2023-07-20T08:43:06;0.28;;;0.28;;
35795;SDS011;21916;52.428;13.302;2023-07-20T08:45:35;0.20;;;0.20;;
35795;SDS011;21916;52.428;13.302;2023-07-20T08:48:04;0.52;;;0.52;;
35795;SDS011;21916;52.428;13.302;2023-07-20T08:50:32;0.40;;;0.40;;
35795;SDS011;21916;52.428;13.302;2023-07-20T08:52:59;0.80;;;0.43;;
35795;SDS011;21916;52.428;13.302;2023-07-20T08:55:26;0.40;;;0.40;;
35795;SDS011;21916;52.428;13.302;2023-07-20T08:58:01;0.32;;;0.32;;
35795;SDS011;21916;52.428;13.302;2023-07-20T09:00:30;0.50;;;0.50;;
35795;SDS011;21916;52.428;13.302;2023-07-20T09:02:57;0.30;;;0.30;;
35795;SDS011;21916;52.428;13.302;2023-07-20T09:05:26;0.57;;;0.47;;
35795;SDS011;21916;52.428;13.302;2023-07-20T09:07:52;0.75;;;0.60;;
35795;SDS011;21916;52.428;13.302;2023-07-20T09:10:21;1.45;;;0.32;;
35795;SDS011;21916;52.428;13.302;2023-07-20T09:12:48;0.52;;;0.47;;
35795;SDS011;21916;52.428;13.302;2023-07-20T09:15:14;0.40;;;0.40;;
35795;SDS011;21916;52.428;13.302;2023-07-20T09:17:47;0.30;;;0.30;;
35795;SDS011;21916;52.428;13.302;2023-07-20T09:20:15;0.32;;;0.32;;
35795;SDS011;21916;52.428;13.302;2023-07-20T09:22:44;0.30;;;0.30;;
35795;SDS011;21916;52.428;13.302;2023-07-20T09:25:14;1.15;;;0.40;;
35795;SDS011;21916;52.428;13.302;2023-07-20T09:27:48;0.30;;;0.30;;
35795;SDS011;21916;52.428;13.302;2023-07-20T09:30:15;0.43;;;0.30;;
35795;SDS011;21916;52.428;13.302;2023-07-20T09:32:45;0.20;;;0.20;;
35795;SDS011;21916;52.428;13.302;2023-07-20T09:35:17;0.30;;;0.30;;
35795;SDS011;21916;52.428;13.302;2023-07-20T09:37:47;0.60;;;0.60;;
35795;SDS011;21916;52.428;13.302;2023-07-20T09:40:26;0.30;;;0.30;;
35795;SDS011;21916;52.428;13.302;2023-07-20T09:42:53;1.27;;;0.43;;
35795;SDS011;21916;52.428;13.302;2023-07-20T09:45:29;0.30;;;0.30;;
35795;SDS011;21916;52.428;13.302;2023-07-20T09:48:04;0.37;;;0.33;;
35795;SDS011;21916;52.428;13.302;2023-07-20T09:53:16;0.52;;;0.38;;
35795;SDS011;21916;52.428;13.302;2023-07-20T09:55:49;0.30;;;0.30;;
35795;SDS011;21916;52.428;13.302;2023-07-20T09:58:15;0.38;;;0.30;;
35795;SDS011;21916;52.428;13.302;2023-07-20T10:00:42;0.30;;;0.30;;
35795;SDS011;21916;52.428;13.302;2023-07-20T10:03:13;0.40;;;0.38;;
35795;SDS011;21916;52.428;13.302;2023-07-20T10:05:47;0.40;;;0.40;;
35795;SDS011;21916;52.428;13.302;2023-07-20T10:08:21;0.47;;;0.30;;
35795;SDS011;21916;52.428;13.302;2023-07-20T10:10:50;0.15;;;0.15;;
35795;SDS011;21916;52.428;13.302;2023-07-20T10:13:25;0.40;;;0.40;;
35795;SDS011;21916;52.428;13.302;2023-07-20T10:16:01;0.22;;;0.22;;
35795;SDS011;21916;52.428;13.302;2023-07-20T10:20:55;1.25;;;0.30;;
35795;SDS011;21916;52.428;13.302;2023-07-20T10:23:24;0.30;;;0.30;;
35795;SDS011;21916;52.428;13.302;2023-07-20T10:25:53;0.20;;;0.20;;
35795;SDS011;21916;52.428;13.302;2023-07-20T10:28:20;0.52;;;0.52;;
35795;SDS011;21916;52.428;13.302;2023-07-20T10:30:48;0.20;;;0.20;;
35795;SDS011;21916;52.428;13.302;2023-07-20T10:33:15;0.40;;;0.40;;
35795;SDS011;21916;52.428;13.302;2023-07-20T10:35:52;0.50;;;0.38;;
35795;SDS011;21916;52.428;13.302;2023-07-20T10:38:42;0.30;;;0.30;;
35795;SDS011;21916;52.428;13.302;2023-07-20T10:41:21;0.20;;;0.20;;
35795;SDS011;21916;52.428;13.302;2023-07-20T10:44:07;0.20;;;0.20;;
35795;SDS011;21916;52.428;13.302;2023-07-20T10:49:05;0.20;;;0.20;;
35795;SDS011;21916;52.428;13.302;2023-07-20T10:51:42;0.35;;;0.35;;
35795;SDS011;21916;52.428;13.302;2023-07-20T10:56:42;0.85;;;0.60;;
35795;SDS011;21916;52.428;13.302;2023-07-20T11:02:07;0.52;;;0.32;;
35795;SDS011;21916;52.428;13.302;2023-07-20T11:04:40;0.35;;;0.30;;
35795;SDS011;21916;52.428;13.302;2023-07-20T11:07:07;0.50;;;0.50;;
35795;SDS011;21916;52.428;13.302;2023-07-20T11:09:36;0.28;;;0.28;;
35795;SDS011;21916;52.428;13.302;2023-07-20T11:12:14;0.20;;;0.20;;
35795;SDS011;21916;52.428;13.302;2023-07-20T11:14:52;0.40;;;0.20;;
35795;SDS011;21916;52.428;13.302;2023-07-20T11:17:20;0.45;;;0.30;;
35795;SDS011;21916;52.428;13.302;2023-07-20T11:19:48;0.30;;;0.30;;
35795;SDS011;21916;52.428;13.302;2023-07-20T11:22:16;0.30;;;0.30;;
35795;SDS011;21916;52.428;13.302;2023-07-20T11:24:43;0.20;;;0.20;;
35795;SDS011;21916;52.428;13.302;2023-07-20T11:27:09;0.40;;;0.40;;
35795;SDS011;21916;52.428;13.302;2023-07-20T11:29:35;1.40;;;0.98;;
35795;SDS011;21916;52.428;13.302;2023-07-20T11:32:02;0.20;;;0.20;;
35795;SDS011;21916;52.428;13.302;2023-07-20T11:34:30;0.20;;;0.20;;
35795;SDS011;21916;52.428;13.302;2023-07-20T11:36:57;0.65;;;0.40;;
35795;SDS011;21916;52.428;13.302;2023-07-20T11:39:23;0.30;;;0.30;;
35795;SDS011;21916;52.428;13.302;2023-07-20T11:41:54;0.30;;;0.30;;
35795;SDS011;21916;52.428;13.302;2023-07-20T11:44:26;0.40;;;0.40;;
35795;SDS011;21916;52.428;13.302;2023-07-20T11:47:04;0.30;;;0.20;;
35795;SDS011;21916;52.428;13.302;2023-07-20T11:49:30;0.35;;;0.30;;
35795;SDS011;21916;52.428;13.302;2023-07-20T11:52:02;0.60;;;0.60;;
35795;SDS011;21916;52.428;13.302;2023-07-20T11:54:31;0.30;;;0.30;;
35795;SDS011;21916;52.428;13.302;2023-07-20T11:57:00;0.55;;;0.30;;
35795;SDS011;21916;52.428;13.302;2023-07-20T11:59:27;0.22;;;0.22;;
35795;SDS011;21916;52.428;13.302;2023-07-20T12:01:53;0.30;;;0.30;;
35795;SDS011;21916;52.428;13.302;2023-07-20T12:04:18;0.30;;;0.30;;
35795;SDS011;21916;52.428;13.302;2023-07-20T12:06:48;0.20;;;0.20;;
35795;SDS011;21916;52.428;13.302;2023-07-20T12:09:14;0.20;;;0.20;;
35795;SDS011;21916;52.428;13.302;2023-07-20T12:11:42;0.30;;;0.30;;
35795;SDS011;21916;52.428;13.302;2023-07-20T12:14:12;0.30;;;0.30;;
35795;SDS011;21916;52.428;13.302;2023-07-20T12:16:38;0.30;;;0.30;;
35795;SDS011;21916;52.428;13.302;2023-07-20T12:19:05;0.20;;;0.20;;
35795;SDS011;21916;52.428;13.302;2023-07-20T12:21:35;0.20;;;0.20;;
35795;SDS011;21916;52.428;13.302;2023-07-20T12:24:05;0.25;;;0.25;;
35795;SDS011;21916;52.428;13.302;2023-07-20T12:26:32;0.30;;;0.30;;
35795;SDS011;21916;52.428;13.302;2023-07-20T12:28:59;0.30;;;0.30;;
35795;SDS011;21916;52.428;13.302;2023-07-20T12:31:26;0.40;;;0.30;;
35795;SDS011;21916;52.428;13.302;2023-07-20T12:33:53;0.25;;;0.25;;
35795;SDS011;21916;52.428;13.302;2023-07-20T12:36:22;0.20;;;0.20;;
35795;SDS011;21916;52.428;13.302;2023-07-20T12:38:48;0.20;;;0.20;;
35795;SDS011;21916;52.428;13.302;2023-07-20T12:41:15;0.35;;;0.20;;
35795;SDS011;21916;52.428;13.302;2023-07-20T12:43:41;0.25;;;0.25;;
35795;SDS011;21916;52.428;13.302;2023-07-20T12:46:19;0.85;;;0.20;;
35795;SDS011;21916;52.428;13.302;2023-07-20T12:48:45;0.65;;;0.40;;
35795;SDS011;21916;52.428;13.302;2023-07-20T12:51:11;0.47;;;0.22;;
35795;SDS011;21916;52.428;13.302;2023-07-20T12:53:37;0.28;;;0.28;;
35795;SDS011;21916;52.428;13.302;2023-07-20T12:56:03;0.20;;;0.20;;
35795;SDS011;21916;52.428;13.302;2023-07-20T12:58:30;0.25;;;0.25;;
35795;SDS011;21916;52.428;13.302;2023-07-20T13:00:56;1.48;;;0.47;;
35795;SDS011;21916;52.428;13.302;2023-07-20T13:03:21;0.32;;;0.20;;
35795;SDS011;21916;52.428;13.302;2023-07-20T13:05:47;0.20;;;0.20;;
35795;SDS011;21916;52.428;13.302;2023-07-20T13:08:14;1.27;;;0.22;;
35795;SDS011;21916;52.428;13.302;2023-07-20T13:10:41;0.25;;;0.25;;
35795;SDS011;21916;52.428;13.302;2023-07-20T13:13:06;0.30;;;0.30;;
35795;SDS011;21916;52.428;13.302;2023-07-20T13:15:40;0.10;;;0.10;;
35795;SDS011;21916;52.428;13.302;2023-07-20T13:18:07;0.32;;;0.20;;
35795;SDS011;21916;52.428;13.302;2023-07-20T13:20:33;0.30;;;0.30;;
35795;SDS011;21916;52.428;13.302;2023-07-20T13:22:59;0.15;;;0.15;;
35795;SDS011;21916;52.428;13.302;2023-07-20T13:25:25;0.20;;;0.20;;
35795;SDS011;21916;52.428;13.302;2023-07-20T13:27:51;0.32;;;0.32;;
35795;SDS011;21916;52.428;13.302;2023-07-20T13:30:17;0.20;;;0.20;;
35795;SDS011;21916;52.428;13.302;2023-07-20T13:32:44;0.13;;;0.13;;
35795;SDS011;21916;52.428;13.302;2023-07-20T13:35:11;0.30;;;0.30;;
35795;SDS011;21916;52.428;13.302;2023-07-20T13:37:38;0.35;;;0.30;;
35795;SDS011;21916;52.428;13.302;2023-07-20T13:40:10;0.47;;;0.30;;
35795;SDS011;21916;52.428;13.302;2023-07-20T13:42:40;0.28;;;0.28;;
35795;SDS011;21916;52.428;13.302;2023-07-20T13:45:11;0.10;;;0.10;;
35795;SDS011;21916;52.428;13.302;2023-07-20T13:47:37;0.30;;;0.20;;
35795;SDS011;21916;52.428;13.302;2023-07-20T13:50:04;0.20;;;0.20;;
35795;SDS011;21916;52.428;13.302;2023-07-20T13:52:30;0.20;;;0.17;;
35795;SDS011;21916;52.428;13.302;2023-07-20T13:55:07;0.20;;;0.20;;
35795;SDS011;21916;52.428;13.302;2023-07-20T13:57:33;0.22;;;0.22;;
35795;SDS011;21916;52.428;13.302;2023-07-20T14:00:03;0.10;;;0.10;;
35795;SDS011;21916;52.428;13.302;2023-07-20T14:02:37;0.20;;;0.20;;
35795;SDS011;21916;52.428;13.302;2023-07-20T14:05:04;0.20;;;0.20;;
35795;SDS011;21916;52.428;13.302;2023-07-20T14:07:31;0.28;;;0.28;;
35795;SDS011;21916;52.428;13.302;2023-07-20T14:09:57;0.57;;;0.40;;
35795;SDS011;21916;52.428;13.302;2023-07-20T14:12:24;0.20;;;0.20;;
35795;SDS011;21916;52.428;13.302;2023-07-20T14:14:50;0.22;;;0.22;;
35795;SDS011;21916;52.428;13.302;2023-07-20T14:17:16;0.22;;;0.22;;
35795;SDS011;21916;52.428;13.302;2023-07-20T14:19:42;0.55;;;0.20;;
35795;SDS011;21916;52.428;13.302;2023-07-20T14:22:09;0.10;;;0.10;;
35795;SDS011;21916;52.428;13.302;2023-07-20T14:24:35;0.30;;;0.30;;
35795;SDS011;21916;52.428;13.302;2023-07-20T14:27:01;0.17;;;0.17;;
35795;SDS011;21916;52.428;13.302;2023-07-20T14:29:27;0.20;;;0.20;;
35795;SDS011;21916;52.428;13.302;2023-07-20T14:31:59;0.20;;;0.20;;
35795;SDS011;21916;52.428;13.302;2023-07-20T14:34:30;0.10;;;0.10;;
35795;SDS011;21916;52.428;13.302;2023-07-20T14:36:59;0.20;;;0.20;;
35795;SDS011;21916;52.428;13.302;2023-07-20T14:39:25;0.63;;;0.45;;
35795;SDS011;21916;52.428;13.302;2023-07-20T14:41:51;0.10;;;0.10;;
35795;SDS011;21916;52.428;13.302;2023-07-20T14:44:17;0.30;;;0.30;;
35795;SDS011;21916;52.428;13.302;2023-07-20T14:46:43;0.10;;;0.10;;
35795;SDS011;21916;52.428;13.302;2023-07-20T14:49:09;0.20;;;0.20;;
35795;SDS011;21916;52.428;13.302;2023-07-20T14:51:36;0.20;;;0.20;;
35795;SDS011;21916;52.428;13.302;2023-07-20T14:54:08;0.20;;;0.20;;
35795;SDS011;21916;52.428;13.302;2023-07-20T14:56:37;0.20;;;0.20;;
35795;SDS011;21916;52.428;13.302;2023-07-20T14:59:04;0.10;;;0.10;;